sensor_id;sensor_type;location;lat;lon;timestamp;temperature;humidity
24446;DHT22;13347;50.984;5.822;2022-12-07T00:01:51;5.50;99.90
24446;DHT22;13347;50.984;5.822;2022-12-07T00:04:18;5.50;99.90
24446;DHT22;13347;50.984;5.822;2022-12-07T00:06:47;5.50;99.90
24446;DHT22;13347;50.984;5.822;2022-12-07T00:09:17;5.40;99.90
24446;DHT22;13347;50.984;5.822;2022-12-07T00:11:49;5.50;99.90
24446;DHT22;13347;50.984;5.822;2022-12-07T00:14:17;5.40;99.90
24446;DHT22;13347;50.984;5.822;2022-12-07T00:16:44;5.50;99.90
24446;DHT22;13347;50.984;5.822;2022-12-07T00:19:13;5.50;99.90
24446;DHT22;13347;50.984;5.822;2022-12-07T00:21:40;5.40;99.90
24446;DHT22;13347;50.984;5.822;2022-12-07T00:24:09;5.30;99.90
24446;DHT22;13347;50.984;5.822;2022-12-07T00:26:38;5.40;99.90
24446;DHT22;13347;50.984;5.822;2022-12-07T00:29:09;5.40;99.90
24446;DHT22;13347;50.984;5.822;2022-12-07T00:31:38;5.40;99.90
24446;DHT22;13347;50.984;5.822;2022-12-07T00:34:06;5.30;99.90
24446;DHT22;13347;50.984;5.822;2022-12-07T00:36:34;5.30;99.90
24446;DHT22;13347;50.984;5.822;2022-12-07T00:39:01;5.30;99.90
24446;DHT22;13347;50.984;5.822;2022-12-07T00:41:29;5.20;99.90
24446;DHT22;13347;50.984;5.822;2022-12-07T00:43:56;5.20;99.90
24446;DHT22;13347;50.984;5.822;2022-12-07T00:46:25;5.20;99.90
24446;DHT22;13347;50.984;5.822;2022-12-07T00:48:53;5.20;99.90
24446;DHT22;13347;50.984;5.822;2022-12-07T00:51:22;5.30;99.90
24446;DHT22;13347;50.984;5.822;2022-12-07T00:53:50;5.50;99.90
24446;DHT22;13347;50.984;5.822;2022-12-07T00:56:19;5.50;99.90
24446;DHT22;13347;50.984;5.822;2022-12-07T00:58:50;5.50;99.90
24446;DHT22;13347;50.984;5.822;2022-12-07T01:01:18;5.50;99.90
24446;DHT22;13347;50.984;5.822;2022-12-07T01:03:46;5.40;99.90
24446;DHT22;13347;50.984;5.822;2022-12-07T01:06:15;5.40;99.90
24446;DHT22;13347;50.984;5.822;2022-12-07T01:08:43;5.40;99.90
24446;DHT22;13347;50.984;5.822;2022-12-07T01:11:13;5.30;99.90
24446;DHT22;13347;50.984;5.822;2022-12-07T01:13:41;5.40;99.90
24446;DHT22;13347;50.984;5.822;2022-12-07T01:16:10;5.40;99.90
24446;DHT22;13347;50.984;5.822;2022-12-07T01:18:38;5.50;99.90
24446;DHT22;13347;50.984;5.822;2022-12-07T01:21:14;5.30;99.90
24446;DHT22;13347;50.984;5.822;2022-12-07T01:23:42;5.40;99.90
24446;DHT22;13347;50.984;5.822;2022-12-07T01:26:12;5.40;99.90
24446;DHT22;13347;50.984;5.822;2022-12-07T01:28:39;5.30;99.90
24446;DHT22;13347;50.984;5.822;2022-12-07T01:31:08;5.30;99.90
24446;DHT22;13347;50.984;5.822;2022-12-07T01:33:38;5.20;99.90
24446;DHT22;13347;50.984;5.822;2022-12-07T01:36:08;5.20;99.90
24446;DHT22;13347;50.984;5.822;2022-12-07T01:38:39;5.30;99.90
24446;DHT22;13347;50.984;5.822;2022-12-07T01:41:06;5.30;99.90
24446;DHT22;13347;50.984;5.822;2022-12-07T01:43:34;5.40;99.90
24446;DHT22;13347;50.984;5.822;2022-12-07T01:46:02;5.40;99.90
24446;DHT22;13347;50.984;5.822;2022-12-07T01:48:33;5.30;99.90
24446;DHT22;13347;50.984;5.822;2022-12-07T01:51:05;5.40;99.90
24446;DHT22;13347;50.984;5.822;2022-12-07T01:53:37;5.40;99.90
24446;DHT22;13347;50.984;5.822;2022-12-07T01:56:06;5.40;99.90
24446;DHT22;13347;50.984;5.822;2022-12-07T01:58:34;5.40;99.90
24446;DHT22;13347;50.984;5.822;2022-12-07T02:01:01;5.40;99.90
24446;DHT22;13347;50.984;5.822;2022-12-07T02:03:34;5.30;99.90
24446;DHT22;13347;50.984;5.822;2022-12-07T02:06:03;5.40;99.90
24446;DHT22;13347;50.984;5.822;2022-12-07T02:08:31;5.30;99.90
24446;DHT22;13347;50.984;5.822;2022-12-07T02:11:00;5.40;99.90
24446;DHT22;13347;50.984;5.822;2022-12-07T02:13:31;5.40;99.90
24446;DHT22;13347;50.984;5.822;2022-12-07T02:16:23;5.30;99.90
24446;DHT22;13347;50.984;5.822;2022-12-07T02:19:03;5.40;99.90
24446;DHT22;13347;50.984;5.822;2022-12-07T02:21:38;5.40;99.90
24446;DHT22;13347;50.984;5.822;2022-12-07T02:24:16;5.30;99.90
24446;DHT22;13347;50.984;5.822;2022-12-07T02:27:17;5.50;99.90
24446;DHT22;13347;50.984;5.822;2022-12-07T02:29:55;5.50;99.90
24446;DHT22;13347;50.984;5.822;2022-12-07T02:32:27;5.30;99.90
24446;DHT22;13347;50.984;5.822;2022-12-07T02:35:03;5.50;99.90
24446;DHT22;13347;50.984;5.822;2022-12-07T02:37:36;5.40;99.90
24446;DHT22;13347;50.984;5.822;2022-12-07T02:40:09;5.50;99.90
24446;DHT22;13347;50.984;5.822;2022-12-07T02:42:42;5.50;99.90
24446;DHT22;13347;50.984;5.822;2022-12-07T02:45:14;5.40;99.90
24446;DHT22;13347;50.984;5.822;2022-12-07T02:47:43;5.40;99.90
24446;DHT22;13347;50.984;5.822;2022-12-07T02:50:11;5.30;99.90
24446;DHT22;13347;50.984;5.822;2022-12-07T02:52:38;5.30;99.90
24446;DHT22;13347;50.984;5.822;2022-12-07T02:55:07;5.30;99.90
24446;DHT22;13347;50.984;5.822;2022-12-07T02:57:46;5.30;99.90
24446;DHT22;13347;50.984;5.822;2022-12-07T03:00:19;5.40;99.90
24446;DHT22;13347;50.984;5.822;2022-12-07T03:02:52;5.40;99.90
24446;DHT22;13347;50.984;5.822;2022-12-07T03:05:34;5.40;99.90
24446;DHT22;13347;50.984;5.822;2022-12-07T03:08:09;5.50;99.90
24446;DHT22;13347;50.984;5.822;2022-12-07T03:10:45;5.50;99.90
24446;DHT22;13347;50.984;5.822;2022-12-07T03:13:22;5.50;99.90
24446;DHT22;13347;50.984;5.822;2022-12-07T03:15:56;5.50;99.90
24446;DHT22;13347;50.984;5.822;2022-12-07T03:18:29;5.50;99.90
24446;DHT22;13347;50.984;5.822;2022-12-07T03:21:01;5.50;99.90
24446;DHT22;13347;50.984;5.822;2022-12-07T03:23:31;5.40;99.90
24446;DHT22;13347;50.984;5.822;2022-12-07T03:26:00;5.40;99.90
24446;DHT22;13347;50.984;5.822;2022-12-07T03:28:33;5.40;99.90
24446;DHT22;13347;50.984;5.822;2022-12-07T03:31:06;5.50;99.90
24446;DHT22;13347;50.984;5.822;2022-12-07T03:33:41;5.40;99.90
24446;DHT22;13347;50.984;5.822;2022-12-07T03:36:16;5.40;99.90
24446;DHT22;13347;50.984;5.822;2022-12-07T03:38:50;5.50;99.90
24446;DHT22;13347;50.984;5.822;2022-12-07T03:41:23;5.50;99.90
24446;DHT22;13347;50.984;5.822;2022-12-07T03:43:51;5.40;99.90
24446;DHT22;13347;50.984;5.822;2022-12-07T03:46:31;5.30;99.90
24446;DHT22;13347;50.984;5.822;2022-12-07T03:49:07;5.20;99.90
24446;DHT22;13347;50.984;5.822;2022-12-07T03:51:41;5.30;99.90
24446;DHT22;13347;50.984;5.822;2022-12-07T03:54:10;5.30;99.90
24446;DHT22;13347;50.984;5.822;2022-12-07T03:56:41;5.30;99.90
24446;DHT22;13347;50.984;5.822;2022-12-07T03:59:10;5.40;99.90
24446;DHT22;13347;50.984;5.822;2022-12-07T04:01:41;5.30;99.90
24446;DHT22;13347;50.984;5.822;2022-12-07T04:04:09;5.40;99.90
24446;DHT22;13347;50.984;5.822;2022-12-07T04:06:36;5.40;99.90
24446;DHT22;13347;50.984;5.822;2022-12-07T04:09:03;5.30;99.90
24446;DHT22;13347;50.984;5.822;2022-12-07T04:11:31;5.30;99.90
24446;DHT22;13347;50.984;5.822;2022-12-07T04:13:58;5.40;99.90
24446;DHT22;13347;50.984;5.822;2022-12-07T04:16:44;5.40;99.90
24446;DHT22;13347;50.984;5.822;2022-12-07T04:19:11;5.40;99.90
24446;DHT22;13347;50.984;5.822;2022-12-07T04:21:38;5.30;99.90
24446;DHT22;13347;50.984;5.822;2022-12-07T04:24:06;5.20;99.90
24446;DHT22;13347;50.984;5.822;2022-12-07T04:26:33;5.10;99.90
24446;DHT22;13347;50.984;5.822;2022-12-07T04:29:00;5.10;99.90
24446;DHT22;13347;50.984;5.822;2022-12-07T04:31:27;5.20;99.90
24446;DHT22;13347;50.984;5.822;2022-12-07T04:33:56;5.20;99.90
24446;DHT22;13347;50.984;5.822;2022-12-07T04:36:23;5.30;99.90
24446;DHT22;13347;50.984;5.822;2022-12-07T04:38:53;5.20;99.90
24446;DHT22;13347;50.984;5.822;2022-12-07T04:41:20;5.30;99.90
24446;DHT22;13347;50.984;5.822;2022-12-07T04:43:53;5.20;99.90
24446;DHT22;13347;50.984;5.822;2022-12-07T04:46:20;5.30;99.90
24446;DHT22;13347;50.984;5.822;2022-12-07T04:48:48;5.40;99.90
24446;DHT22;13347;50.984;5.822;2022-12-07T04:51:20;5.30;99.90
24446;DHT22;13347;50.984;5.822;2022-12-07T04:53:48;5.30;99.90
24446;DHT22;13347;50.984;5.822;2022-12-07T04:56:15;5.30;99.90
24446;DHT22;13347;50.984;5.822;2022-12-07T04:58:43;5.30;99.90
24446;DHT22;13347;50.984;5.822;2022-12-07T05:01:11;5.20;99.90
24446;DHT22;13347;50.984;5.822;2022-12-07T05:03:38;5.10;99.90
24446;DHT22;13347;50.984;5.822;2022-12-07T05:06:06;5.10;99.90
24446;DHT22;13347;50.984;5.822;2022-12-07T05:08:36;5.00;99.90
24446;DHT22;13347;50.984;5.822;2022-12-07T05:11:04;5.00;99.90
24446;DHT22;13347;50.984;5.822;2022-12-07T05:13:31;5.10;99.90
24446;DHT22;13347;50.984;5.822;2022-12-07T05:15:59;5.20;99.90
24446;DHT22;13347;50.984;5.822;2022-12-07T05:18:26;5.10;99.90
24446;DHT22;13347;50.984;5.822;2022-12-07T05:20:53;5.20;99.90
24446;DHT22;13347;50.984;5.822;2022-12-07T05:23:20;5.10;99.90
24446;DHT22;13347;50.984;5.822;2022-12-07T05:25:49;5.30;99.90
24446;DHT22;13347;50.984;5.822;2022-12-07T05:28:16;5.40;99.90
24446;DHT22;13347;50.984;5.822;2022-12-07T05:30:43;5.40;99.90
24446;DHT22;13347;50.984;5.822;2022-12-07T05:33:10;5.40;99.90
24446;DHT22;13347;50.984;5.822;2022-12-07T05:35:37;5.30;99.90
24446;DHT22;13347;50.984;5.822;2022-12-07T05:38:06;5.30;99.90
24446;DHT22;13347;50.984;5.822;2022-12-07T05:40:33;5.30;99.90
24446;DHT22;13347;50.984;5.822;2022-12-07T05:43:01;5.30;99.90
24446;DHT22;13347;50.984;5.822;2022-12-07T05:45:29;5.30;99.90
24446;DHT22;13347;50.984;5.822;2022-12-07T05:47:56;5.20;99.90
24446;DHT22;13347;50.984;5.822;2022-12-07T05:50:23;5.20;99.90
24446;DHT22;13347;50.984;5.822;2022-12-07T05:52:50;5.20;99.90
24446;DHT22;13347;50.984;5.822;2022-12-07T05:55:17;5.20;99.90
24446;DHT22;13347;50.984;5.822;2022-12-07T05:57:44;5.40;99.90
24446;DHT22;13347;50.984;5.822;2022-12-07T06:00:33;5.30;99.90
24446;DHT22;13347;50.984;5.822;2022-12-07T06:02:59;5.30;99.90
24446;DHT22;13347;50.984;5.822;2022-12-07T06:05:26;5.30;99.90
24446;DHT22;13347;50.984;5.822;2022-12-07T06:07:53;5.30;99.90
24446;DHT22;13347;50.984;5.822;2022-12-07T06:10:20;5.20;99.90
24446;DHT22;13347;50.984;5.822;2022-12-07T06:12:48;5.30;99.90
24446;DHT22;13347;50.984;5.822;2022-12-07T06:15:14;5.20;99.90
24446;DHT22;13347;50.984;5.822;2022-12-07T06:17:42;5.30;99.90
24446;DHT22;13347;50.984;5.822;2022-12-07T06:20:10;5.20;99.90
24446;DHT22;13347;50.984;5.822;2022-12-07T06:22:37;5.20;99.90
24446;DHT22;13347;50.984;5.822;2022-12-07T06:25:05;5.20;99.90
24446;DHT22;13347;50.984;5.822;2022-12-07T06:27:32;5.20;99.90
24446;DHT22;13347;50.984;5.822;2022-12-07T06:30:01;5.10;99.90
24446;DHT22;13347;50.984;5.822;2022-12-07T06:32:32;5.10;99.90
24446;DHT22;13347;50.984;5.822;2022-12-07T06:35:01;5.20;99.90
24446;DHT22;13347;50.984;5.822;2022-12-07T06:37:28;5.30;99.90
24446;DHT22;13347;50.984;5.822;2022-12-07T06:39:55;5.30;99.90
24446;DHT22;13347;50.984;5.822;2022-12-07T06:42:23;5.20;99.90
24446;DHT22;13347;50.984;5.822;2022-12-07T06:44:50;5.10;99.90
24446;DHT22;13347;50.984;5.822;2022-12-07T06:47:17;5.20;99.90
24446;DHT22;13347;50.984;5.822;2022-12-07T06:49:44;5.20;99.90
24446;DHT22;13347;50.984;5.822;2022-12-07T06:52:12;5.20;99.90
24446;DHT22;13347;50.984;5.822;2022-12-07T06:54:40;5.10;99.90
24446;DHT22;13347;50.984;5.822;2022-12-07T06:57:07;5.20;99.90
24446;DHT22;13347;50.984;5.822;2022-12-07T06:59:34;5.20;99.90
24446;DHT22;13347;50.984;5.822;2022-12-07T07:02:01;5.10;99.90
24446;DHT22;13347;50.984;5.822;2022-12-07T07:04:28;5.10;99.90
24446;DHT22;13347;50.984;5.822;2022-12-07T07:06:55;5.10;99.90
24446;DHT22;13347;50.984;5.822;2022-12-07T07:09:24;5.10;99.90
24446;DHT22;13347;50.984;5.822;2022-12-07T07:11:51;5.10;99.90
24446;DHT22;13347;50.984;5.822;2022-12-07T07:14:19;5.10;99.90
24446;DHT22;13347;50.984;5.822;2022-12-07T07:16:46;5.00;99.90
24446;DHT22;13347;50.984;5.822;2022-12-07T07:19:14;5.00;99.90
24446;DHT22;13347;50.984;5.822;2022-12-07T07:21:41;4.90;99.90
24446;DHT22;13347;50.984;5.822;2022-12-07T07:24:08;4.80;99.90
24446;DHT22;13347;50.984;5.822;2022-12-07T07:26:37;4.80;99.90
24446;DHT22;13347;50.984;5.822;2022-12-07T07:29:04;4.90;99.90
24446;DHT22;13347;50.984;5.822;2022-12-07T07:31:31;4.80;99.90
24446;DHT22;13347;50.984;5.822;2022-12-07T07:34:01;4.80;99.90
24446;DHT22;13347;50.984;5.822;2022-12-07T07:36:28;4.80;99.90
24446;DHT22;13347;50.984;5.822;2022-12-07T07:38:55;4.90;99.90
24446;DHT22;13347;50.984;5.822;2022-12-07T07:41:22;4.90;99.90
24446;DHT22;13347;50.984;5.822;2022-12-07T07:43:51;4.90;99.90
24446;DHT22;13347;50.984;5.822;2022-12-07T07:46:18;4.80;99.90
24446;DHT22;13347;50.984;5.822;2022-12-07T07:48:45;4.70;99.90
24446;DHT22;13347;50.984;5.822;2022-12-07T07:51:12;4.60;99.90
24446;DHT22;13347;50.984;5.822;2022-12-07T07:53:39;4.50;99.90
24446;DHT22;13347;50.984;5.822;2022-12-07T07:56:07;4.40;99.90
24446;DHT22;13347;50.984;5.822;2022-12-07T07:58:34;4.30;99.90
24446;DHT22;13347;50.984;5.822;2022-12-07T08:01:05;4.40;99.90
24446;DHT22;13347;50.984;5.822;2022-12-07T08:03:33;4.40;99.90
24446;DHT22;13347;50.984;5.822;2022-12-07T08:06:01;4.40;99.90
24446;DHT22;13347;50.984;5.822;2022-12-07T08:08:29;4.50;99.90
24446;DHT22;13347;50.984;5.822;2022-12-07T08:10:56;4.50;99.90
24446;DHT22;13347;50.984;5.822;2022-12-07T08:13:26;4.50;99.90
24446;DHT22;13347;50.984;5.822;2022-12-07T08:15:53;4.50;99.90
24446;DHT22;13347;50.984;5.822;2022-12-07T08:18:22;4.50;99.90
24446;DHT22;13347;50.984;5.822;2022-12-07T08:20:49;4.50;99.90
24446;DHT22;13347;50.984;5.822;2022-12-07T08:23:16;4.50;99.90
24446;DHT22;13347;50.984;5.822;2022-12-07T08:25:44;4.50;99.90
24446;DHT22;13347;50.984;5.822;2022-12-07T08:28:11;4.50;99.90
24446;DHT22;13347;50.984;5.822;2022-12-07T08:30:38;4.40;99.90
24446;DHT22;13347;50.984;5.822;2022-12-07T08:33:05;4.50;99.90
24446;DHT22;13347;50.984;5.822;2022-12-07T08:35:34;4.50;99.90
24446;DHT22;13347;50.984;5.822;2022-12-07T08:38:01;4.50;99.90
24446;DHT22;13347;50.984;5.822;2022-12-07T08:40:29;4.50;99.90
24446;DHT22;13347;50.984;5.822;2022-12-07T08:42:56;4.60;99.90
24446;DHT22;13347;50.984;5.822;2022-12-07T08:45:23;4.60;99.90
24446;DHT22;13347;50.984;5.822;2022-12-07T08:47:54;4.70;99.90
24446;DHT22;13347;50.984;5.822;2022-12-07T08:50:22;4.70;99.90
24446;DHT22;13347;50.984;5.822;2022-12-07T08:52:53;4.70;99.90
24446;DHT22;13347;50.984;5.822;2022-12-07T08:55:22;4.70;99.90
24446;DHT22;13347;50.984;5.822;2022-12-07T08:57:49;4.60;99.90
24446;DHT22;13347;50.984;5.822;2022-12-07T09:00:18;4.70;99.90
24446;DHT22;13347;50.984;5.822;2022-12-07T09:02:45;4.70;99.90
24446;DHT22;13347;50.984;5.822;2022-12-07T09:05:13;4.70;99.90
24446;DHT22;13347;50.984;5.822;2022-12-07T09:07:43;4.80;99.90
24446;DHT22;13347;50.984;5.822;2022-12-07T09:10:12;4.80;99.90
24446;DHT22;13347;50.984;5.822;2022-12-07T09:12:39;4.80;99.90
24446;DHT22;13347;50.984;5.822;2022-12-07T09:15:07;4.80;99.90
24446;DHT22;13347;50.984;5.822;2022-12-07T09:17:34;4.90;99.90
24446;DHT22;13347;50.984;5.822;2022-12-07T09:20:02;4.90;99.90
24446;DHT22;13347;50.984;5.822;2022-12-07T09:22:29;5.00;99.90
24446;DHT22;13347;50.984;5.822;2022-12-07T09:24:57;5.00;99.90
24446;DHT22;13347;50.984;5.822;2022-12-07T09:27:26;5.00;99.90
24446;DHT22;13347;50.984;5.822;2022-12-07T09:29:53;5.00;99.90
24446;DHT22;13347;50.984;5.822;2022-12-07T09:32:21;5.00;99.90
24446;DHT22;13347;50.984;5.822;2022-12-07T09:34:48;5.20;99.90
24446;DHT22;13347;50.984;5.822;2022-12-07T09:37:15;5.30;99.90
24446;DHT22;13347;50.984;5.822;2022-12-07T09:39:42;5.20;99.90
24446;DHT22;13347;50.984;5.822;2022-12-07T09:42:25;5.40;99.90
24446;DHT22;13347;50.984;5.822;2022-12-07T09:44:53;5.30;99.90
24446;DHT22;13347;50.984;5.822;2022-12-07T09:47:21;5.30;99.90
24446;DHT22;13347;50.984;5.822;2022-12-07T09:49:48;5.30;99.90
24446;DHT22;13347;50.984;5.822;2022-12-07T09:52:20;5.30;99.90
24446;DHT22;13347;50.984;5.822;2022-12-07T09:54:50;5.20;99.90
24446;DHT22;13347;50.984;5.822;2022-12-07T09:57:18;5.30;99.90
24446;DHT22;13347;50.984;5.822;2022-12-07T09:59:49;5.30;99.90
24446;DHT22;13347;50.984;5.822;2022-12-07T10:02:35;5.50;99.90
24446;DHT22;13347;50.984;5.822;2022-12-07T10:05:06;5.90;99.90
24446;DHT22;13347;50.984;5.822;2022-12-07T10:07:34;6.20;99.90
24446;DHT22;13347;50.984;5.822;2022-12-07T10:10:03;6.50;99.90
24446;DHT22;13347;50.984;5.822;2022-12-07T10:12:30;6.70;99.90
24446;DHT22;13347;50.984;5.822;2022-12-07T10:15:19;6.80;99.90
24446;DHT22;13347;50.984;5.822;2022-12-07T10:17:49;7.00;99.90
24446;DHT22;13347;50.984;5.822;2022-12-07T10:20:20;6.90;99.90
24446;DHT22;13347;50.984;5.822;2022-12-07T10:23:02;7.20;99.90
24446;DHT22;13347;50.984;5.822;2022-12-07T10:25:33;7.50;99.90
24446;DHT22;13347;50.984;5.822;2022-12-07T10:30:56;7.90;99.90
24446;DHT22;13347;50.984;5.822;2022-12-07T10:33:32;7.90;99.90
24446;DHT22;13347;50.984;5.822;2022-12-07T10:36:02;7.90;99.90
24446;DHT22;13347;50.984;5.822;2022-12-07T10:38:45;8.10;99.90
24446;DHT22;13347;50.984;5.822;2022-12-07T10:41:13;8.20;50.00
24446;DHT22;13347;50.984;5.822;2022-12-07T10:43:47;8.50;1.00
24446;DHT22;13347;50.984;5.822;2022-12-07T10:52:45;9.00;1.00
24446;DHT22;13347;50.984;5.822;2022-12-07T10:55:21;9.00;1.00
24446;DHT22;13347;50.984;5.822;2022-12-07T10:58:21;9.30;1.00
24446;DHT22;13347;50.984;5.822;2022-12-07T11:00:56;9.50;1.00
24446;DHT22;13347;50.984;5.822;2022-12-07T11:04:03;9.50;1.00
24446;DHT22;13347;50.984;5.822;2022-12-07T11:06:39;9.20;1.00
24446;DHT22;13347;50.984;5.822;2022-12-07T11:12:26;8.80;99.90
24446;DHT22;13347;50.984;5.822;2022-12-07T11:14:59;8.90;1.00
24446;DHT22;13347;50.984;5.822;2022-12-07T11:17:34;9.10;1.00
24446;DHT22;13347;50.984;5.822;2022-12-07T11:20:27;8.90;99.90
24446;DHT22;13347;50.984;5.822;2022-12-07T11:23:04;8.70;99.90
24446;DHT22;13347;50.984;5.822;2022-12-07T11:25:39;8.80;1.00
24446;DHT22;13347;50.984;5.822;2022-12-07T11:28:11;8.90;99.90
24446;DHT22;13347;50.984;5.822;2022-12-07T11:30:51;9.20;1.00
24446;DHT22;13347;50.984;5.822;2022-12-07T11:33:29;8.90;89.40
24446;DHT22;13347;50.984;5.822;2022-12-07T11:36:13;8.40;1.00
24446;DHT22;13347;50.984;5.822;2022-12-07T11:38:50;8.00;1.00
24446;DHT22;13347;50.984;5.822;2022-12-07T11:41:22;7.70;1.00
24446;DHT22;13347;50.984;5.822;2022-12-07T11:43:58;7.70;99.90
24446;DHT22;13347;50.984;5.822;2022-12-07T11:46:29;8.00;99.90
24446;DHT22;13347;50.984;5.822;2022-12-07T11:49:07;8.40;99.90
24446;DHT22;13347;50.984;5.822;2022-12-07T11:51:38;8.80;1.00
24446;DHT22;13347;50.984;5.822;2022-12-07T11:54:14;8.90;95.50
24446;DHT22;13347;50.984;5.822;2022-12-07T11:56:43;9.10;1.00
24446;DHT22;13347;50.984;5.822;2022-12-07T11:59:13;9.00;1.00
24446;DHT22;13347;50.984;5.822;2022-12-07T12:01:50;9.00;1.00
24446;DHT22;13347;50.984;5.822;2022-12-07T12:04:40;9.30;1.00
24446;DHT22;13347;50.984;5.822;2022-12-07T12:07:14;9.10;99.90
24446;DHT22;13347;50.984;5.822;2022-12-07T12:09:49;9.00;1.00
24446;DHT22;13347;50.984;5.822;2022-12-07T12:12:33;9.00;49.20
24446;DHT22;13347;50.984;5.822;2022-12-07T12:15:19;9.20;1.00
24446;DHT22;13347;50.984;5.822;2022-12-07T12:20:55;9.00;99.90
24446;DHT22;13347;50.984;5.822;2022-12-07T12:23:27;8.80;99.90
24446;DHT22;13347;50.984;5.822;2022-12-07T12:26:01;8.90;1.00
24446;DHT22;13347;50.984;5.822;2022-12-07T12:28:31;8.70;1.00
24446;DHT22;13347;50.984;5.822;2022-12-07T12:31:08;8.40;99.90
24446;DHT22;13347;50.984;5.822;2022-12-07T12:33:37;8.00;1.00
24446;DHT22;13347;50.984;5.822;2022-12-07T12:39:12;7.90;1.00
24446;DHT22;13347;50.984;5.822;2022-12-07T12:41:56;7.90;1.00
24446;DHT22;13347;50.984;5.822;2022-12-07T12:47:56;7.80;99.90
24446;DHT22;13347;50.984;5.822;2022-12-07T12:50:26;7.90;99.90
24446;DHT22;13347;50.984;5.822;2022-12-07T12:52:57;7.90;1.00
24446;DHT22;13347;50.984;5.822;2022-12-07T12:58:46;8.00;99.90
24446;DHT22;13347;50.984;5.822;2022-12-07T13:01:44;7.90;1.00
24446;DHT22;13347;50.984;5.822;2022-12-07T13:07:13;7.60;1.00
24446;DHT22;13347;50.984;5.822;2022-12-07T13:10:01;7.70;1.00
24446;DHT22;13347;50.984;5.822;2022-12-07T13:12:29;7.80;1.00
24446;DHT22;13347;50.984;5.822;2022-12-07T13:14:59;7.80;99.90
24446;DHT22;13347;50.984;5.822;2022-12-07T13:18:01;7.70;1.00
24446;DHT22;13347;50.984;5.822;2022-12-07T13:20:48;7.60;1.00
24446;DHT22;13347;50.984;5.822;2022-12-07T13:23:36;7.50;1.00
24446;DHT22;13347;50.984;5.822;2022-12-07T13:26:15;7.50;1.00
24446;DHT22;13347;50.984;5.822;2022-12-07T13:28:45;7.50;1.00
24446;DHT22;13347;50.984;5.822;2022-12-07T13:31:33;7.40;1.00
24446;DHT22;13347;50.984;5.822;2022-12-07T13:34:01;7.40;1.00
24446;DHT22;13347;50.984;5.822;2022-12-07T13:36:31;7.40;1.00
24446;DHT22;13347;50.984;5.822;2022-12-07T13:39:17;7.30;1.00
24446;DHT22;13347;50.984;5.822;2022-12-07T13:41:48;7.20;1.00
24446;DHT22;13347;50.984;5.822;2022-12-07T13:44:16;7.30;1.00
24446;DHT22;13347;50.984;5.822;2022-12-07T13:46:53;7.50;1.00
24446;DHT22;13347;50.984;5.822;2022-12-07T13:49:24;7.50;1.00
24446;DHT22;13347;50.984;5.822;2022-12-07T13:51:53;7.50;1.00
24446;DHT22;13347;50.984;5.822;2022-12-07T13:54:21;7.40;1.00
24446;DHT22;13347;50.984;5.822;2022-12-07T13:56:51;7.40;1.00
24446;DHT22;13347;50.984;5.822;2022-12-07T13:59:20;7.40;1.00
24446;DHT22;13347;50.984;5.822;2022-12-07T14:01:51;7.30;1.00
24446;DHT22;13347;50.984;5.822;2022-12-07T14:04:29;7.20;1.00
24446;DHT22;13347;50.984;5.822;2022-12-07T14:06:57;7.20;1.00
24446;DHT22;13347;50.984;5.822;2022-12-07T14:09:25;7.30;1.00
24446;DHT22;13347;50.984;5.822;2022-12-07T14:11:55;7.20;1.00
24446;DHT22;13347;50.984;5.822;2022-12-07T14:14:23;7.00;1.00
24446;DHT22;13347;50.984;5.822;2022-12-07T14:17:12;7.10;1.00
24446;DHT22;13347;50.984;5.822;2022-12-07T14:19:45;7.00;1.00
24446;DHT22;13347;50.984;5.822;2022-12-07T14:22:25;7.10;1.00
24446;DHT22;13347;50.984;5.822;2022-12-07T14:25:16;7.10;1.00
24446;DHT22;13347;50.984;5.822;2022-12-07T14:27:54;7.10;1.00
24446;DHT22;13347;50.984;5.822;2022-12-07T14:30:25;6.90;1.00
24446;DHT22;13347;50.984;5.822;2022-12-07T14:32:57;7.00;1.00
24446;DHT22;13347;50.984;5.822;2022-12-07T14:35:26;7.20;1.00
24446;DHT22;13347;50.984;5.822;2022-12-07T14:37:53;7.30;1.00
24446;DHT22;13347;50.984;5.822;2022-12-07T14:40:22;7.20;1.00
24446;DHT22;13347;50.984;5.822;2022-12-07T14:42:51;7.10;1.00
24446;DHT22;13347;50.984;5.822;2022-12-07T14:45:21;7.00;1.00
24446;DHT22;13347;50.984;5.822;2022-12-07T14:47:48;7.00;1.00
24446;DHT22;13347;50.984;5.822;2022-12-07T14:50:19;6.80;1.00
24446;DHT22;13347;50.984;5.822;2022-12-07T14:52:49;6.80;1.00
24446;DHT22;13347;50.984;5.822;2022-12-07T14:55:21;6.70;1.00
24446;DHT22;13347;50.984;5.822;2022-12-07T14:57:49;6.60;1.00
24446;DHT22;13347;50.984;5.822;2022-12-07T15:00:17;6.60;1.00
24446;DHT22;13347;50.984;5.822;2022-12-07T15:02:45;6.60;1.00
24446;DHT22;13347;50.984;5.822;2022-12-07T15:05:13;6.50;1.00
24446;DHT22;13347;50.984;5.822;2022-12-07T15:07:42;6.50;1.00
24446;DHT22;13347;50.984;5.822;2022-12-07T15:10:15;6.40;1.00
24446;DHT22;13347;50.984;5.822;2022-12-07T15:12:43;6.30;1.00
24446;DHT22;13347;50.984;5.822;2022-12-07T15:15:10;6.20;1.00
24446;DHT22;13347;50.984;5.822;2022-12-07T15:17:37;6.10;1.00
24446;DHT22;13347;50.984;5.822;2022-12-07T15:20:07;6.00;1.00
24446;DHT22;13347;50.984;5.822;2022-12-07T15:22:35;6.00;1.00
24446;DHT22;13347;50.984;5.822;2022-12-07T15:25:04;6.00;1.00
24446;DHT22;13347;50.984;5.822;2022-12-07T15:27:32;5.90;1.00
24446;DHT22;13347;50.984;5.822;2022-12-07T15:29:59;5.90;1.00
24446;DHT22;13347;50.984;5.822;2022-12-07T15:32:26;5.80;1.00
24446;DHT22;13347;50.984;5.822;2022-12-07T15:34:53;5.90;1.00
24446;DHT22;13347;50.984;5.822;2022-12-07T15:37:20;6.00;1.00
24446;DHT22;13347;50.984;5.822;2022-12-07T15:39:48;5.90;1.00
24446;DHT22;13347;50.984;5.822;2022-12-07T15:42:16;5.80;1.00
24446;DHT22;13347;50.984;5.822;2022-12-07T15:44:43;5.80;17.20
24446;DHT22;13347;50.984;5.822;2022-12-07T15:47:28;5.70;17.50
24446;DHT22;13347;50.984;5.822;2022-12-07T15:49:55;5.60;32.40
24446;DHT22;13347;50.984;5.822;2022-12-07T15:52:23;5.60;46.30
24446;DHT22;13347;50.984;5.822;2022-12-07T15:54:50;5.50;58.40
24446;DHT22;13347;50.984;5.822;2022-12-07T15:57:19;5.40;81.90
24446;DHT22;13347;50.984;5.822;2022-12-07T15:59:46;5.40;93.60
24446;DHT22;13347;50.984;5.822;2022-12-07T16:02:13;5.30;99.90
24446;DHT22;13347;50.984;5.822;2022-12-07T16:04:41;5.40;99.90
24446;DHT22;13347;50.984;5.822;2022-12-07T16:07:08;5.50;99.90
24446;DHT22;13347;50.984;5.822;2022-12-07T16:09:37;5.50;99.90
24446;DHT22;13347;50.984;5.822;2022-12-07T16:12:04;5.60;99.90
24446;DHT22;13347;50.984;5.822;2022-12-07T16:14:33;5.60;99.90
24446;DHT22;13347;50.984;5.822;2022-12-07T16:17:01;5.60;99.90
24446;DHT22;13347;50.984;5.822;2022-12-07T16:19:28;5.70;99.90
24446;DHT22;13347;50.984;5.822;2022-12-07T16:21:55;5.80;99.90
24446;DHT22;13347;50.984;5.822;2022-12-07T16:24:22;5.80;99.90
24446;DHT22;13347;50.984;5.822;2022-12-07T16:26:49;5.70;99.90
24446;DHT22;13347;50.984;5.822;2022-12-07T16:29:18;5.60;99.90
24446;DHT22;13347;50.984;5.822;2022-12-07T16:31:47;5.50;99.90
24446;DHT22;13347;50.984;5.822;2022-12-07T16:34:15;5.50;99.90
24446;DHT22;13347;50.984;5.822;2022-12-07T16:36:42;5.40;99.90
24446;DHT22;13347;50.984;5.822;2022-12-07T16:39:09;5.30;99.90
24446;DHT22;13347;50.984;5.822;2022-12-07T16:41:37;5.30;99.90